sensor_id;sensor_type;location;lat;lon;timestamp;P1;durP1;ratioP1;P2;durP2;ratioP2
41923;SDS011;27613;48.116;11.656;2023-02-28T00:02:10;5.43;;;2.45;;
41923;SDS011;27613;48.116;11.656;2023-02-28T00:04:35;12.35;;;3.85;;
41923;SDS011;27613;48.116;11.656;2023-02-28T00:07:01;4.28;;;2.58;;
41923;SDS011;27613;48.116;11.656;2023-02-28T00:09:26;5.72;;;2.88;;
41923;SDS011;27613;48.116;11.656;2023-02-28T00:11:52;5.57;;;2.50;;
41923;SDS011;27613;48.116;11.656;2023-02-28T00:14:17;7.65;;;3.00;;
41923;SDS011;27613;48.116;11.656;2023-02-28T00:16:43;4.65;;;2.80;;
41923;SDS011;27613;48.116;11.656;2023-02-28T00:19:08;9.88;;;2.38;;
41923;SDS011;27613;48.116;11.656;2023-02-28T00:21:34;3.17;;;2.22;;
41923;SDS011;27613;48.116;11.656;2023-02-28T00:24:00;5.28;;;2.85;;
41923;SDS011;27613;48.116;11.656;2023-02-28T00:26:25;5.78;;;2.70;;
41923;SDS011;27613;48.116;11.656;2023-02-28T00:28:51;11.50;;;2.92;;
41923;SDS011;27613;48.116;11.656;2023-02-28T00:31:17;3.63;;;2.50;;
41923;SDS011;27613;48.116;11.656;2023-02-28T00:33:43;5.30;;;2.67;;
41923;SDS011;27613;48.116;11.656;2023-02-28T00:36:09;6.60;;;3.33;;
41923;SDS011;27613;48.116;11.656;2023-02-28T00:38:36;11.88;;;2.67;;
41923;SDS011;27613;48.116;11.656;2023-02-28T00:41:03;6.40;;;2.88;;
41923;SDS011;27613;48.116;11.656;2023-02-28T00:43:29;4.80;;;2.70;;
41923;SDS011;27613;48.116;11.656;2023-02-28T00:45:56;4.45;;;2.67;;
41923;SDS011;27613;48.116;11.656;2023-02-28T00:48:21;4.68;;;2.97;;
41923;SDS011;27613;48.116;11.656;2023-02-28T00:50:48;3.75;;;2.72;;
41923;SDS011;27613;48.116;11.656;2023-02-28T00:53:14;6.85;;;3.17;;
41923;SDS011;27613;48.116;11.656;2023-02-28T00:55:40;5.85;;;2.83;;
41923;SDS011;27613;48.116;11.656;2023-02-28T00:58:05;5.55;;;3.30;;
41923;SDS011;27613;48.116;11.656;2023-02-28T01:00:31;5.90;;;2.70;;
41923;SDS011;27613;48.116;11.656;2023-02-28T01:02:56;5.53;;;2.53;;
41923;SDS011;27613;48.116;11.656;2023-02-28T01:05:22;9.15;;;3.25;;
41923;SDS011;27613;48.116;11.656;2023-02-28T01:07:48;4.05;;;2.58;;
41923;SDS011;27613;48.116;11.656;2023-02-28T01:10:13;3.78;;;2.40;;
41923;SDS011;27613;48.116;11.656;2023-02-28T01:12:39;3.95;;;2.42;;
41923;SDS011;27613;48.116;11.656;2023-02-28T01:15:04;4.68;;;2.58;;
41923;SDS011;27613;48.116;11.656;2023-02-28T01:17:30;5.65;;;3.00;;
41923;SDS011;27613;48.116;11.656;2023-02-28T01:19:56;9.65;;;2.50;;
41923;SDS011;27613;48.116;11.656;2023-02-28T01:22:22;5.30;;;2.88;;
41923;SDS011;27613;48.116;11.656;2023-02-28T01:24:47;6.60;;;3.63;;
41923;SDS011;27613;48.116;11.656;2023-02-28T01:27:13;4.28;;;2.83;;
41923;SDS011;27613;48.116;11.656;2023-02-28T01:29:38;3.65;;;2.58;;
41923;SDS011;27613;48.116;11.656;2023-02-28T01:32:04;4.22;;;2.75;;
41923;SDS011;27613;48.116;11.656;2023-02-28T01:34:29;4.35;;;2.80;;
41923;SDS011;27613;48.116;11.656;2023-02-28T01:36:55;4.13;;;2.30;;
41923;SDS011;27613;48.116;11.656;2023-02-28T01:39:23;4.85;;;2.42;;
41923;SDS011;27613;48.116;11.656;2023-02-28T01:41:49;5.65;;;2.80;;
41923;SDS011;27613;48.116;11.656;2023-02-28T01:47:18;5.57;;;2.92;;
41923;SDS011;27613;48.116;11.656;2023-02-28T01:49:44;5.25;;;2.88;;
41923;SDS011;27613;48.116;11.656;2023-02-28T01:52:10;8.32;;;2.88;;
41923;SDS011;27613;48.116;11.656;2023-02-28T01:54:43;5.60;;;3.03;;
41923;SDS011;27613;48.116;11.656;2023-02-28T01:57:16;5.28;;;2.80;;
41923;SDS011;27613;48.116;11.656;2023-02-28T01:59:50;5.03;;;3.22;;
41923;SDS011;27613;48.116;11.656;2023-02-28T02:02:23;4.13;;;2.80;;
41923;SDS011;27613;48.116;11.656;2023-02-28T02:04:51;6.18;;;3.40;;
41923;SDS011;27613;48.116;11.656;2023-02-28T02:07:34;4.85;;;2.80;;
41923;SDS011;27613;48.116;11.656;2023-02-28T02:10:04;4.07;;;2.70;;
41923;SDS011;27613;48.116;11.656;2023-02-28T02:18:02;5.68;;;2.88;;
41923;SDS011;27613;48.116;11.656;2023-02-28T02:20:44;5.13;;;3.50;;
41923;SDS011;27613;48.116;11.656;2023-02-28T02:25:57;4.97;;;2.90;;
41923;SDS011;27613;48.116;11.656;2023-02-28T02:34:42;4.90;;;3.03;;
41923;SDS011;27613;48.116;11.656;2023-02-28T02:42:41;9.43;;;3.70;;
41923;SDS011;27613;48.116;11.656;2023-02-28T02:45:54;4.40;;;3.27;;
41923;SDS011;27613;48.116;11.656;2023-02-28T02:48:06;5.88;;;3.83;;
41923;SDS011;27613;48.116;11.656;2023-02-28T02:50:36;5.30;;;3.05;;
41923;SDS011;27613;48.116;11.656;2023-02-28T02:53:06;5.43;;;3.38;;
41923;SDS011;27613;48.116;11.656;2023-02-28T02:55:35;6.80;;;3.63;;
41923;SDS011;27613;48.116;11.656;2023-02-28T02:58:07;5.35;;;3.22;;
41923;SDS011;27613;48.116;11.656;2023-02-28T03:00:37;9.77;;;4.00;;
41923;SDS011;27613;48.116;11.656;2023-02-28T03:03:08;5.70;;;3.20;;
41923;SDS011;27613;48.116;11.656;2023-02-28T03:05:39;3.92;;;2.60;;
41923;SDS011;27613;48.116;11.656;2023-02-28T03:08:09;6.25;;;3.63;;
41923;SDS011;27613;48.116;11.656;2023-02-28T03:10:37;5.57;;;3.50;;
41923;SDS011;27613;48.116;11.656;2023-02-28T03:13:14;4.28;;;2.97;;
41923;SDS011;27613;48.116;11.656;2023-02-28T03:15:54;6.03;;;3.50;;
41923;SDS011;27613;48.116;11.656;2023-02-28T03:18:54;6.03;;;3.22;;
41923;SDS011;27613;48.116;11.656;2023-02-28T03:24:27;4.25;;;3.33;;
41923;SDS011;27613;48.116;11.656;2023-02-28T03:27:10;7.35;;;4.22;;
41923;SDS011;27613;48.116;11.656;2023-02-28T03:29:43;6.47;;;4.07;;
41923;SDS011;27613;48.116;11.656;2023-02-28T03:32:27;5.93;;;3.88;;
41923;SDS011;27613;48.116;11.656;2023-02-28T03:35:10;5.15;;;3.03;;
41923;SDS011;27613;48.116;11.656;2023-02-28T03:37:47;9.65;;;3.83;;
41923;SDS011;27613;48.116;11.656;2023-02-28T03:40:17;6.50;;;3.78;;
41923;SDS011;27613;48.116;11.656;2023-02-28T03:42:48;9.25;;;3.88;;
41923;SDS011;27613;48.116;11.656;2023-02-28T03:45:21;6.70;;;4.10;;
41923;SDS011;27613;48.116;11.656;2023-02-28T03:50:40;6.00;;;3.65;;
41923;SDS011;27613;48.116;11.656;2023-02-28T03:53:11;7.43;;;4.43;;
41923;SDS011;27613;48.116;11.656;2023-02-28T03:55:39;7.13;;;4.35;;
41923;SDS011;27613;48.116;11.656;2023-02-28T04:00:58;15.55;;;4.82;;
41923;SDS011;27613;48.116;11.656;2023-02-28T04:03:33;6.65;;;4.30;;
41923;SDS011;27613;48.116;11.656;2023-02-28T04:06:00;6.50;;;4.28;;
41923;SDS011;27613;48.116;11.656;2023-02-28T04:08:26;7.20;;;4.43;;
41923;SDS011;27613;48.116;11.656;2023-02-28T04:11:35;9.80;;;5.18;;
41923;SDS011;27613;48.116;11.656;2023-02-28T04:14:01;10.50;;;5.80;;
41923;SDS011;27613;48.116;11.656;2023-02-28T04:16:28;7.70;;;4.72;;
41923;SDS011;27613;48.116;11.656;2023-02-28T04:18:54;8.18;;;5.28;;
41923;SDS011;27613;48.116;11.656;2023-02-28T04:21:28;9.07;;;5.45;;
41923;SDS011;27613;48.116;11.656;2023-02-28T04:23:54;6.15;;;4.40;;
41923;SDS011;27613;48.116;11.656;2023-02-28T04:26:20;8.25;;;5.55;;
41923;SDS011;27613;48.116;11.656;2023-02-28T04:28:46;11.32;;;5.82;;
41923;SDS011;27613;48.116;11.656;2023-02-28T04:31:11;9.38;;;5.13;;
41923;SDS011;27613;48.116;11.656;2023-02-28T04:33:37;8.13;;;5.28;;
41923;SDS011;27613;48.116;11.656;2023-02-28T04:36:04;9.35;;;6.03;;
41923;SDS011;27613;48.116;11.656;2023-02-28T04:38:32;9.23;;;5.88;;
41923;SDS011;27613;48.116;11.656;2023-02-28T04:40:59;10.75;;;6.10;;
41923;SDS011;27613;48.116;11.656;2023-02-28T04:43:26;8.40;;;5.60;;
41923;SDS011;27613;48.116;11.656;2023-02-28T04:45:52;11.32;;;6.32;;
41923;SDS011;27613;48.116;11.656;2023-02-28T04:48:21;11.15;;;6.40;;
41923;SDS011;27613;48.116;11.656;2023-02-28T04:50:48;10.10;;;6.55;;
41923;SDS011;27613;48.116;11.656;2023-02-28T04:53:13;8.30;;;5.82;;
41923;SDS011;27613;48.116;11.656;2023-02-28T04:55:39;8.38;;;5.97;;
41923;SDS011;27613;48.116;11.656;2023-02-28T04:58:05;10.68;;;6.80;;
41923;SDS011;27613;48.116;11.656;2023-02-28T05:00:30;9.38;;;6.35;;
41923;SDS011;27613;48.116;11.656;2023-02-28T05:02:55;10.77;;;7.18;;
41923;SDS011;27613;48.116;11.656;2023-02-28T05:05:21;10.35;;;7.13;;
41923;SDS011;27613;48.116;11.656;2023-02-28T05:07:47;10.07;;;6.78;;
41923;SDS011;27613;48.116;11.656;2023-02-28T05:10:12;11.15;;;7.50;;
41923;SDS011;27613;48.116;11.656;2023-02-28T05:12:38;10.05;;;7.18;;
41923;SDS011;27613;48.116;11.656;2023-02-28T05:15:03;13.70;;;8.30;;
41923;SDS011;27613;48.116;11.656;2023-02-28T05:17:30;10.60;;;7.03;;
41923;SDS011;27613;48.116;11.656;2023-02-28T05:19:55;9.05;;;6.75;;
41923;SDS011;27613;48.116;11.656;2023-02-28T05:22:21;12.05;;;7.72;;
41923;SDS011;27613;48.116;11.656;2023-02-28T05:24:48;12.60;;;7.78;;
41923;SDS011;27613;48.116;11.656;2023-02-28T05:27:13;11.98;;;7.60;;
41923;SDS011;27613;48.116;11.656;2023-02-28T05:29:39;12.05;;;7.35;;
41923;SDS011;27613;48.116;11.656;2023-02-28T05:32:09;11.07;;;7.63;;
41923;SDS011;27613;48.116;11.656;2023-02-28T05:34:36;11.35;;;7.57;;
41923;SDS011;27613;48.116;11.656;2023-02-28T05:37:05;12.65;;;8.85;;
41923;SDS011;27613;48.116;11.656;2023-02-28T05:39:33;14.00;;;8.18;;
41923;SDS011;27613;48.116;11.656;2023-02-28T05:41:59;12.52;;;8.38;;
41923;SDS011;27613;48.116;11.656;2023-02-28T05:44:24;12.25;;;8.43;;
41923;SDS011;27613;48.116;11.656;2023-02-28T05:46:50;13.23;;;8.82;;
41923;SDS011;27613;48.116;11.656;2023-02-28T05:49:15;13.98;;;9.30;;
41923;SDS011;27613;48.116;11.656;2023-02-28T05:51:41;13.50;;;8.70;;
41923;SDS011;27613;48.116;11.656;2023-02-28T05:54:06;10.55;;;8.18;;
41923;SDS011;27613;48.116;11.656;2023-02-28T05:56:32;11.20;;;8.65;;
41923;SDS011;27613;48.116;11.656;2023-02-28T05:59:00;12.80;;;9.38;;
41923;SDS011;27613;48.116;11.656;2023-02-28T06:01:39;14.77;;;9.82;;
41923;SDS011;27613;48.116;11.656;2023-02-28T06:04:07;17.42;;;9.98;;
41923;SDS011;27613;48.116;11.656;2023-02-28T06:06:34;12.43;;;9.30;;
41923;SDS011;27613;48.116;11.656;2023-02-28T06:09:00;14.55;;;10.45;;
41923;SDS011;27613;48.116;11.656;2023-02-28T06:11:26;14.27;;;9.68;;
41923;SDS011;27613;48.116;11.656;2023-02-28T06:13:59;13.52;;;9.40;;
41923;SDS011;27613;48.116;11.656;2023-02-28T06:16:26;11.05;;;8.30;;
41923;SDS011;27613;48.116;11.656;2023-02-28T06:18:52;14.52;;;10.38;;
41923;SDS011;27613;48.116;11.656;2023-02-28T06:21:20;17.58;;;10.20;;
41923;SDS011;27613;48.116;11.656;2023-02-28T06:23:46;14.52;;;9.65;;
41923;SDS011;27613;48.116;11.656;2023-02-28T06:26:12;15.35;;;9.80;;
41923;SDS011;27613;48.116;11.656;2023-02-28T06:28:37;14.95;;;9.52;;
41923;SDS011;27613;48.116;11.656;2023-02-28T06:31:10;15.40;;;9.60;;
41923;SDS011;27613;48.116;11.656;2023-02-28T06:33:38;16.33;;;10.63;;
41923;SDS011;27613;48.116;11.656;2023-02-28T06:36:04;18.08;;;10.45;;
41923;SDS011;27613;48.116;11.656;2023-02-28T06:38:31;15.40;;;10.50;;
41923;SDS011;27613;48.116;11.656;2023-02-28T06:40:57;15.95;;;10.32;;
41923;SDS011;27613;48.116;11.656;2023-02-28T06:43:24;13.75;;;9.85;;
41923;SDS011;27613;48.116;11.656;2023-02-28T06:45:56;14.82;;;9.60;;
41923;SDS011;27613;48.116;11.656;2023-02-28T06:48:23;15.38;;;10.32;;
41923;SDS011;27613;48.116;11.656;2023-02-28T06:50:49;17.95;;;10.98;;
41923;SDS011;27613;48.116;11.656;2023-02-28T06:53:16;16.63;;;11.02;;
41923;SDS011;27613;48.116;11.656;2023-02-28T06:55:41;13.25;;;9.45;;
41923;SDS011;27613;48.116;11.656;2023-02-28T06:58:07;18.73;;;11.38;;
41923;SDS011;27613;48.116;11.656;2023-02-28T07:00:41;17.98;;;10.75;;
41923;SDS011;27613;48.116;11.656;2023-02-28T07:03:07;15.73;;;10.88;;
41923;SDS011;27613;48.116;11.656;2023-02-28T07:05:34;15.25;;;10.13;;
41923;SDS011;27613;48.116;11.656;2023-02-28T07:08:00;22.00;;;12.43;;
41923;SDS011;27613;48.116;11.656;2023-02-28T07:10:26;22.45;;;11.55;;
41923;SDS011;27613;48.116;11.656;2023-02-28T07:12:52;25.08;;;11.88;;
41923;SDS011;27613;48.116;11.656;2023-02-28T07:15:17;21.35;;;11.23;;
41923;SDS011;27613;48.116;11.656;2023-02-28T07:17:43;26.00;;;14.13;;
41923;SDS011;27613;48.116;11.656;2023-02-28T07:20:08;34.70;;;18.00;;
41923;SDS011;27613;48.116;11.656;2023-02-28T07:22:34;24.45;;;12.20;;
41923;SDS011;27613;48.116;11.656;2023-02-28T07:25:00;20.17;;;11.30;;
41923;SDS011;27613;48.116;11.656;2023-02-28T07:27:25;20.60;;;13.70;;
41923;SDS011;27613;48.116;11.656;2023-02-28T07:29:51;21.58;;;12.95;;
41923;SDS011;27613;48.116;11.656;2023-02-28T07:32:18;15.48;;;11.13;;
41923;SDS011;27613;48.116;11.656;2023-02-28T07:34:44;27.85;;;14.88;;
41923;SDS011;27613;48.116;11.656;2023-02-28T07:37:10;22.50;;;14.40;;
41923;SDS011;27613;48.116;11.656;2023-02-28T07:39:35;33.65;;;18.80;;
41923;SDS011;27613;48.116;11.656;2023-02-28T07:42:04;24.88;;;14.27;;
41923;SDS011;27613;48.116;11.656;2023-02-28T07:44:31;28.65;;;17.17;;
41923;SDS011;27613;48.116;11.656;2023-02-28T07:46:57;48.55;;;24.70;;
41923;SDS011;27613;48.116;11.656;2023-02-28T07:49:23;37.70;;;19.15;;
41923;SDS011;27613;48.116;11.656;2023-02-28T07:51:48;27.50;;;14.57;;
41923;SDS011;27613;48.116;11.656;2023-02-28T07:54:14;17.92;;;11.38;;
41923;SDS011;27613;48.116;11.656;2023-02-28T07:56:39;23.98;;;13.65;;
41923;SDS011;27613;48.116;11.656;2023-02-28T07:59:05;16.50;;;10.88;;
41923;SDS011;27613;48.116;11.656;2023-02-28T08:01:30;19.50;;;11.40;;
41923;SDS011;27613;48.116;11.656;2023-02-28T08:03:56;24.63;;;15.50;;
41923;SDS011;27613;48.116;11.656;2023-02-28T08:06:22;27.73;;;17.35;;
41923;SDS011;27613;48.116;11.656;2023-02-28T08:08:49;24.50;;;14.52;;
41923;SDS011;27613;48.116;11.656;2023-02-28T08:11:15;24.55;;;13.00;;
41923;SDS011;27613;48.116;11.656;2023-02-28T08:13:41;14.48;;;10.15;;
41923;SDS011;27613;48.116;11.656;2023-02-28T08:16:10;15.77;;;11.35;;
41923;SDS011;27613;48.116;11.656;2023-02-28T08:18:39;16.23;;;11.55;;
41923;SDS011;27613;48.116;11.656;2023-02-28T08:21:08;15.10;;;10.98;;
41923;SDS011;27613;48.116;11.656;2023-02-28T08:23:34;16.55;;;12.32;;
41923;SDS011;27613;48.116;11.656;2023-02-28T08:26:00;18.45;;;12.13;;
41923;SDS011;27613;48.116;11.656;2023-02-28T08:28:26;15.18;;;11.48;;
41923;SDS011;27613;48.116;11.656;2023-02-28T08:30:52;15.85;;;11.27;;
41923;SDS011;27613;48.116;11.656;2023-02-28T08:33:18;15.02;;;11.10;;
41923;SDS011;27613;48.116;11.656;2023-02-28T08:35:44;14.88;;;10.55;;
41923;SDS011;27613;48.116;11.656;2023-02-28T08:38:09;15.55;;;10.10;;
41923;SDS011;27613;48.116;11.656;2023-02-28T08:40:35;17.02;;;12.60;;
41923;SDS011;27613;48.116;11.656;2023-02-28T08:43:00;12.57;;;9.50;;
41923;SDS011;27613;48.116;11.656;2023-02-28T08:45:26;15.77;;;11.00;;
41923;SDS011;27613;48.116;11.656;2023-02-28T08:47:51;15.57;;;11.63;;
41923;SDS011;27613;48.116;11.656;2023-02-28T08:50:18;13.35;;;10.40;;
41923;SDS011;27613;48.116;11.656;2023-02-28T08:52:44;14.45;;;10.00;;
41923;SDS011;27613;48.116;11.656;2023-02-28T08:55:09;13.45;;;9.63;;
41923;SDS011;27613;48.116;11.656;2023-02-28T08:57:35;13.38;;;10.10;;
41923;SDS011;27613;48.116;11.656;2023-02-28T09:00:01;13.85;;;10.00;;
41923;SDS011;27613;48.116;11.656;2023-02-28T09:02:29;16.98;;;10.90;;
41923;SDS011;27613;48.116;11.656;2023-02-28T09:04:56;13.93;;;10.15;;
41923;SDS011;27613;48.116;11.656;2023-02-28T09:07:21;15.85;;;10.32;;
41923;SDS011;27613;48.116;11.656;2023-02-28T09:09:47;22.65;;;13.38;;
41923;SDS011;27613;48.116;11.656;2023-02-28T09:12:19;16.60;;;11.32;;
41923;SDS011;27613;48.116;11.656;2023-02-28T09:14:46;16.55;;;11.10;;
41923;SDS011;27613;48.116;11.656;2023-02-28T09:17:11;20.92;;;13.00;;
41923;SDS011;27613;48.116;11.656;2023-02-28T09:19:37;33.40;;;15.23;;
41923;SDS011;27613;48.116;11.656;2023-02-28T09:22:02;38.22;;;17.75;;
41923;SDS011;27613;48.116;11.656;2023-02-28T09:24:27;15.85;;;10.38;;
41923;SDS011;27613;48.116;11.656;2023-02-28T09:26:53;22.15;;;12.50;;
41923;SDS011;27613;48.116;11.656;2023-02-28T09:29:18;34.25;;;16.67;;
41923;SDS011;27613;48.116;11.656;2023-02-28T09:31:44;53.78;;;19.40;;
41923;SDS011;27613;48.116;11.656;2023-02-28T09:34:10;34.28;;;15.82;;
41923;SDS011;27613;48.116;11.656;2023-02-28T09:36:35;49.10;;;19.05;;
41923;SDS011;27613;48.116;11.656;2023-02-28T09:39:04;27.23;;;13.05;;
41923;SDS011;27613;48.116;11.656;2023-02-28T09:41:32;44.10;;;20.90;;
41923;SDS011;27613;48.116;11.656;2023-02-28T09:44:36;20.95;;;12.52;;
41923;SDS011;27613;48.116;11.656;2023-02-28T09:47:11;23.30;;;13.55;;
41923;SDS011;27613;48.116;11.656;2023-02-28T09:49:49;17.83;;;10.80;;
41923;SDS011;27613;48.116;11.656;2023-02-28T09:52:17;17.88;;;9.80;;
41923;SDS011;27613;48.116;11.656;2023-02-28T09:54:45;14.20;;;9.70;;
41923;SDS011;27613;48.116;11.656;2023-02-28T09:57:18;14.43;;;10.45;;
41923;SDS011;27613;48.116;11.656;2023-02-28T10:05:43;17.70;;;8.95;;
41923;SDS011;27613;48.116;11.656;2023-02-28T10:08:34;14.70;;;9.05;;
41923;SDS011;27613;48.116;11.656;2023-02-28T10:11:06;14.13;;;9.57;;
41923;SDS011;27613;48.116;11.656;2023-02-28T10:13:46;20.42;;;11.57;;
41923;SDS011;27613;48.116;11.656;2023-02-28T10:16:34;15.70;;;10.45;;
41923;SDS011;27613;48.116;11.656;2023-02-28T10:19:06;16.85;;;9.80;;
41923;SDS011;27613;48.116;11.656;2023-02-28T10:21:40;17.25;;;10.43;;
41923;SDS011;27613;48.116;11.656;2023-02-28T10:24:19;27.00;;;13.70;;
41923;SDS011;27613;48.116;11.656;2023-02-28T10:26:51;13.73;;;9.77;;
41923;SDS011;27613;48.116;11.656;2023-02-28T10:29:18;36.08;;;11.80;;
41923;SDS011;27613;48.116;11.656;2023-02-28T10:31:44;20.90;;;11.85;;
41923;SDS011;27613;48.116;11.656;2023-02-28T10:34:10;31.15;;;15.20;;
41923;SDS011;27613;48.116;11.656;2023-02-28T10:36:37;21.63;;;11.10;;
41923;SDS011;27613;48.116;11.656;2023-02-28T10:39:31;34.33;;;15.88;;
41923;SDS011;27613;48.116;11.656;2023-02-28T10:42:01;35.80;;;16.15;;
41923;SDS011;27613;48.116;11.656;2023-02-28T10:44:27;16.80;;;10.60;;
41923;SDS011;27613;48.116;11.656;2023-02-28T10:46:53;11.63;;;8.20;;
41923;SDS011;27613;48.116;11.656;2023-02-28T10:49:28;13.95;;;10.05;;
41923;SDS011;27613;48.116;11.656;2023-02-28T10:51:55;22.77;;;12.52;;
41923;SDS011;27613;48.116;11.656;2023-02-28T10:54:33;14.80;;;10.05;;
41923;SDS011;27613;48.116;11.656;2023-02-28T10:57:17;12.52;;;9.63;;
41923;SDS011;27613;48.116;11.656;2023-02-28T10:59:44;12.65;;;8.18;;
41923;SDS011;27613;48.116;11.656;2023-02-28T11:02:33;15.88;;;8.93;;
41923;SDS011;27613;48.116;11.656;2023-02-28T11:05:00;34.25;;;10.00;;
41923;SDS011;27613;48.116;11.656;2023-02-28T11:07:26;14.52;;;9.25;;
41923;SDS011;27613;48.116;11.656;2023-02-28T11:09:53;13.00;;;9.25;;
41923;SDS011;27613;48.116;11.656;2023-02-28T11:12:37;11.57;;;8.98;;
41923;SDS011;27613;48.116;11.656;2023-02-28T11:15:07;13.77;;;8.77;;
41923;SDS011;27613;48.116;11.656;2023-02-28T11:17:55;13.18;;;9.02;;
41923;SDS011;27613;48.116;11.656;2023-02-28T11:20:41;12.45;;;9.25;;
41923;SDS011;27613;48.116;11.656;2023-02-28T11:23:10;15.77;;;9.25;;
41923;SDS011;27613;48.116;11.656;2023-02-28T11:25:38;14.43;;;9.98;;
41923;SDS011;27613;48.116;11.656;2023-02-28T11:28:05;15.73;;;9.32;;
41923;SDS011;27613;48.116;11.656;2023-02-28T11:30:49;13.43;;;8.82;;
41923;SDS011;27613;48.116;11.656;2023-02-28T11:33:27;12.32;;;9.00;;
41923;SDS011;27613;48.116;11.656;2023-02-28T11:35:53;38.42;;;16.67;;
41923;SDS011;27613;48.116;11.656;2023-02-28T11:38:24;12.38;;;9.43;;
41923;SDS011;27613;48.116;11.656;2023-02-28T11:43:38;11.25;;;8.50;;
41923;SDS011;27613;48.116;11.656;2023-02-28T11:46:43;17.67;;;11.70;;
41923;SDS011;27613;48.116;11.656;2023-02-28T11:49:24;20.73;;;10.23;;
41923;SDS011;27613;48.116;11.656;2023-02-28T11:52:16;18.20;;;9.00;;
41923;SDS011;27613;48.116;11.656;2023-02-28T11:54:50;11.48;;;8.23;;
41923;SDS011;27613;48.116;11.656;2023-02-28T11:57:40;13.75;;;8.48;;
41923;SDS011;27613;48.116;11.656;2023-02-28T12:00:32;12.10;;;7.85;;
41923;SDS011;27613;48.116;11.656;2023-02-28T12:03:31;12.48;;;8.20;;
41923;SDS011;27613;48.116;11.656;2023-02-28T12:08:48;20.58;;;8.10;;
41923;SDS011;27613;48.116;11.656;2023-02-28T12:14:30;11.10;;;7.65;;
41923;SDS011;27613;48.116;11.656;2023-02-28T12:28:13;12.63;;;8.00;;
41923;SDS011;27613;48.116;11.656;2023-02-28T12:30:46;10.20;;;7.60;;
41923;SDS011;27613;48.116;11.656;2023-02-28T12:33:18;10.05;;;7.75;;
41923;SDS011;27613;48.116;11.656;2023-02-28T12:35:57;14.25;;;7.50;;
41923;SDS011;27613;48.116;11.656;2023-02-28T12:38:27;8.35;;;7.05;;
41923;SDS011;27613;48.116;11.656;2023-02-28T12:41:03;11.73;;;7.70;;
41923;SDS011;27613;48.116;11.656;2023-02-28T12:43:37;9.02;;;6.68;;
41923;SDS011;27613;48.116;11.656;2023-02-28T12:46:08;10.93;;;6.97;;
41923;SDS011;27613;48.116;11.656;2023-02-28T12:48:39;22.05;;;6.55;;
41923;SDS011;27613;48.116;11.656;2023-02-28T12:51:08;10.65;;;7.03;;
41923;SDS011;27613;48.116;11.656;2023-02-28T12:56:20;11.18;;;6.57;;
41923;SDS011;27613;48.116;11.656;2023-02-28T12:58:51;8.25;;;6.47;;
41923;SDS011;27613;48.116;11.656;2023-02-28T13:07:25;9.82;;;6.55;;
41923;SDS011;27613;48.116;11.656;2023-02-28T13:09:55;10.20;;;6.60;;
41923;SDS011;27613;48.116;11.656;2023-02-28T13:12:22;10.23;;;6.95;;
41923;SDS011;27613;48.116;11.656;2023-02-28T13:14:49;10.93;;;6.55;;
41923;SDS011;27613;48.116;11.656;2023-02-28T13:17:18;8.68;;;6.38;;
41923;SDS011;27613;48.116;11.656;2023-02-28T13:20:14;13.00;;;7.03;;
41923;SDS011;27613;48.116;11.656;2023-02-28T13:22:41;9.50;;;7.13;;
41923;SDS011;27613;48.116;11.656;2023-02-28T13:27:59;10.82;;;8.77;;
41923;SDS011;27613;48.116;11.656;2023-02-28T13:38:52;18.70;;;10.55;;
41923;SDS011;27613;48.116;11.656;2023-02-28T13:49:30;18.08;;;11.85;;
41923;SDS011;27613;48.116;11.656;2023-02-28T14:05:05;20.63;;;11.20;;
41923;SDS011;27613;48.116;11.656;2023-02-28T14:07:39;26.65;;;15.50;;
41923;SDS011;27613;48.116;11.656;2023-02-28T14:10:18;29.45;;;12.07;;
41923;SDS011;27613;48.116;11.656;2023-02-28T14:15:45;16.98;;;10.52;;
41923;SDS011;27613;48.116;11.656;2023-02-28T14:18:55;10.98;;;7.28;;
41923;SDS011;27613;48.116;11.656;2023-02-28T14:21:03;37.13;;;10.25;;
41923;SDS011;27613;48.116;11.656;2023-02-28T14:26:37;28.58;;;12.55;;
41923;SDS011;27613;48.116;11.656;2023-02-28T14:29:26;13.48;;;8.65;;
41923;SDS011;27613;48.116;11.656;2023-02-28T14:32:26;9.15;;;6.90;;
41923;SDS011;27613;48.116;11.656;2023-02-28T14:35:01;14.75;;;9.15;;
41923;SDS011;27613;48.116;11.656;2023-02-28T14:37:41;24.05;;;10.90;;
41923;SDS011;27613;48.116;11.656;2023-02-28T14:40:21;24.35;;;11.90;;
41923;SDS011;27613;48.116;11.656;2023-02-28T14:42:59;23.80;;;11.18;;
41923;SDS011;27613;48.116;11.656;2023-02-28T14:45:27;16.10;;;10.23;;
41923;SDS011;27613;48.116;11.656;2023-02-28T14:47:55;13.38;;;8.65;;
41923;SDS011;27613;48.116;11.656;2023-02-28T14:50:24;29.55;;;13.05;;
41923;SDS011;27613;48.116;11.656;2023-02-28T14:52:55;19.25;;;11.95;;
41923;SDS011;27613;48.116;11.656;2023-02-28T14:55:29;11.18;;;8.10;;
41923;SDS011;27613;48.116;11.656;2023-02-28T14:57:58;15.27;;;9.35;;
41923;SDS011;27613;48.116;11.656;2023-02-28T15:00:29;56.42;;;18.98;;
41923;SDS011;27613;48.116;11.656;2023-02-28T15:02:57;28.52;;;13.32;;
41923;SDS011;27613;48.116;11.656;2023-02-28T15:08:00;21.58;;;11.95;;
41923;SDS011;27613;48.116;11.656;2023-02-28T15:10:56;16.48;;;7.63;;
41923;SDS011;27613;48.116;11.656;2023-02-28T15:13:36;12.02;;;7.65;;
41923;SDS011;27613;48.116;11.656;2023-02-28T15:16:51;12.98;;;7.93;;
41923;SDS011;27613;48.116;11.656;2023-02-28T15:18:57;11.82;;;6.70;;
41923;SDS011;27613;48.116;11.656;2023-02-28T15:24:00;11.57;;;7.22;;
41923;SDS011;27613;48.116;11.656;2023-02-28T15:26:57;13.10;;;8.93;;
41923;SDS011;27613;48.116;11.656;2023-02-28T15:29:25;9.50;;;7.13;;
41923;SDS011;27613;48.116;11.656;2023-02-28T15:31:59;10.13;;;6.80;;
41923;SDS011;27613;48.116;11.656;2023-02-28T15:34:40;8.60;;;6.78;;
41923;SDS011;27613;48.116;11.656;2023-02-28T15:39:52;9.48;;;7.07;;
41923;SDS011;27613;48.116;11.656;2023-02-28T15:42:20;10.52;;;7.15;;
41923;SDS011;27613;48.116;11.656;2023-02-28T15:44:46;17.05;;;7.72;;
41923;SDS011;27613;48.116;11.656;2023-02-28T15:47:19;10.48;;;6.75;;
41923;SDS011;27613;48.116;11.656;2023-02-28T15:49:49;12.23;;;7.20;;
41923;SDS011;27613;48.116;11.656;2023-02-28T15:52:16;15.65;;;8.20;;
41923;SDS011;27613;48.116;11.656;2023-02-28T15:55:21;8.95;;;7.40;;
41923;SDS011;27613;48.116;11.656;2023-02-28T15:57:52;9.23;;;7.43;;
41923;SDS011;27613;48.116;11.656;2023-02-28T16:00:21;30.85;;;11.05;;
41923;SDS011;27613;48.116;11.656;2023-02-28T16:02:48;18.42;;;9.23;;
41923;SDS011;27613;48.116;11.656;2023-02-28T16:07:45;11.93;;;7.63;;
41923;SDS011;27613;48.116;11.656;2023-02-28T16:10:13;24.63;;;10.00;;
41923;SDS011;27613;48.116;11.656;2023-02-28T16:12:39;17.13;;;8.60;;
41923;SDS011;27613;48.116;11.656;2023-02-28T16:15:07;13.25;;;8.32;;
41923;SDS011;27613;48.116;11.656;2023-02-28T16:20:19;14.93;;;7.67;;
41923;SDS011;27613;48.116;11.656;2023-02-28T16:22:49;15.77;;;9.10;;
41923;SDS011;27613;48.116;11.656;2023-02-28T16:25:23;14.45;;;8.30;;
41923;SDS011;27613;48.116;11.656;2023-02-28T16:27:53;12.95;;;7.90;;
41923;SDS011;27613;48.116;11.656;2023-02-28T16:30:20;12.35;;;8.13;;
41923;SDS011;27613;48.116;11.656;2023-02-28T16:32:48;14.60;;;8.88;;
41923;SDS011;27613;48.116;11.656;2023-02-28T16:35:15;15.77;;;8.77;;
41923;SDS011;27613;48.116;11.656;2023-02-28T16:37:42;14.63;;;9.98;;